sensor_id;sensor_type;location;lat;lon;timestamp;temperature;humidity
2973;DHT22;1496;51.404;7.232;2023-09-08T00:01:38;18.70;99.90
2973;DHT22;1496;51.404;7.232;2023-09-08T00:04:04;18.70;99.90
2973;DHT22;1496;51.404;7.232;2023-09-08T00:06:31;18.70;99.90
2973;DHT22;1496;51.404;7.232;2023-09-08T00:08:56;18.70;99.90
2973;DHT22;1496;51.404;7.232;2023-09-08T00:11:22;18.70;99.90
2973;DHT22;1496;51.404;7.232;2023-09-08T00:13:48;18.60;99.90
2973;DHT22;1496;51.404;7.232;2023-09-08T00:16:16;18.50;99.90
2973;DHT22;1496;51.404;7.232;2023-09-08T00:18:41;18.50;99.90
2973;DHT22;1496;51.404;7.232;2023-09-08T00:21:07;18.40;99.90
2973;DHT22;1496;51.404;7.232;2023-09-08T00:23:33;18.40;99.90
2973;DHT22;1496;51.404;7.232;2023-09-08T00:25:58;18.40;99.90
2973;DHT22;1496;51.404;7.232;2023-09-08T00:28:24;18.50;99.90
2973;DHT22;1496;51.404;7.232;2023-09-08T00:30:50;18.30;99.90
2973;DHT22;1496;51.404;7.232;2023-09-08T00:33:16;18.30;99.90
2973;DHT22;1496;51.404;7.232;2023-09-08T00:35:48;18.20;99.90
2973;DHT22;1496;51.404;7.232;2023-09-08T00:38:14;18.20;99.90
2973;DHT22;1496;51.404;7.232;2023-09-08T00:40:40;18.20;99.90
2973;DHT22;1496;51.404;7.232;2023-09-08T00:43:05;18.20;99.90
2973;DHT22;1496;51.404;7.232;2023-09-08T00:45:31;18.10;99.90
2973;DHT22;1496;51.404;7.232;2023-09-08T00:47:58;18.10;99.90
2973;DHT22;1496;51.404;7.232;2023-09-08T00:50:24;17.90;99.90
2973;DHT22;1496;51.404;7.232;2023-09-08T00:52:50;17.80;99.90
2973;DHT22;1496;51.404;7.232;2023-09-08T00:55:17;17.80;99.90
2973;DHT22;1496;51.404;7.232;2023-09-08T00:57:43;17.70;99.90
2973;DHT22;1496;51.404;7.232;2023-09-08T01:00:09;17.60;99.90
2973;DHT22;1496;51.404;7.232;2023-09-08T01:02:34;17.70;99.90
2973;DHT22;1496;51.404;7.232;2023-09-08T01:05:00;17.70;99.90
2973;DHT22;1496;51.404;7.232;2023-09-08T01:07:29;17.80;99.90
2973;DHT22;1496;51.404;7.232;2023-09-08T01:10:06;17.80;99.90
2973;DHT22;1496;51.404;7.232;2023-09-08T01:12:33;17.80;99.90
2973;DHT22;1496;51.404;7.232;2023-09-08T01:15:01;17.80;99.90
2973;DHT22;1496;51.404;7.232;2023-09-08T01:17:26;17.90;99.90
2973;DHT22;1496;51.404;7.232;2023-09-08T01:19:55;17.90;99.90
2973;DHT22;1496;51.404;7.232;2023-09-08T01:25:25;17.90;99.90
2973;DHT22;1496;51.404;7.232;2023-09-08T01:27:53;17.80;99.90
2973;DHT22;1496;51.404;7.232;2023-09-08T01:30:21;17.60;99.90
2973;DHT22;1496;51.404;7.232;2023-09-08T01:32:49;17.20;99.90
2973;DHT22;1496;51.404;7.232;2023-09-08T01:35:16;17.00;99.90
2973;DHT22;1496;51.404;7.232;2023-09-08T01:37:45;16.80;99.90
2973;DHT22;1496;51.404;7.232;2023-09-08T01:40:11;16.70;99.90
2973;DHT22;1496;51.404;7.232;2023-09-08T01:42:40;16.80;99.90
2973;DHT22;1496;51.404;7.232;2023-09-08T01:45:07;16.80;99.90
2973;DHT22;1496;51.404;7.232;2023-09-08T01:47:34;16.80;99.90
2973;DHT22;1496;51.404;7.232;2023-09-08T01:50:01;16.80;99.90
2973;DHT22;1496;51.404;7.232;2023-09-08T01:52:27;16.80;99.90
2973;DHT22;1496;51.404;7.232;2023-09-08T01:54:54;16.80;99.90
2973;DHT22;1496;51.404;7.232;2023-09-08T01:57:21;16.80;99.90
2973;DHT22;1496;51.404;7.232;2023-09-08T01:59:46;16.70;99.90
2973;DHT22;1496;51.404;7.232;2023-09-08T02:02:13;16.70;99.90
2973;DHT22;1496;51.404;7.232;2023-09-08T02:04:39;16.80;99.90
2973;DHT22;1496;51.404;7.232;2023-09-08T02:07:05;16.70;99.90
2973;DHT22;1496;51.404;7.232;2023-09-08T02:09:32;16.80;99.90
2973;DHT22;1496;51.404;7.232;2023-09-08T02:11:58;16.70;99.90
2973;DHT22;1496;51.404;7.232;2023-09-08T02:14:24;16.80;99.90
2973;DHT22;1496;51.404;7.232;2023-09-08T02:16:49;16.80;99.90
2973;DHT22;1496;51.404;7.232;2023-09-08T02:19:16;16.70;99.90
2973;DHT22;1496;51.404;7.232;2023-09-08T02:21:42;16.70;99.90
2973;DHT22;1496;51.404;7.232;2023-09-08T02:24:07;16.70;99.90
2973;DHT22;1496;51.404;7.232;2023-09-08T02:26:34;16.70;99.90
2973;DHT22;1496;51.404;7.232;2023-09-08T02:29:00;16.70;99.90
2973;DHT22;1496;51.404;7.232;2023-09-08T02:31:27;16.70;99.90
2973;DHT22;1496;51.404;7.232;2023-09-08T02:33:54;16.70;99.90
2973;DHT22;1496;51.404;7.232;2023-09-08T02:36:19;16.70;99.90
2973;DHT22;1496;51.404;7.232;2023-09-08T02:38:55;16.60;99.90
2973;DHT22;1496;51.404;7.232;2023-09-08T02:41:21;16.60;99.90
2973;DHT22;1496;51.404;7.232;2023-09-08T02:43:47;16.60;99.90
2973;DHT22;1496;51.404;7.232;2023-09-08T02:46:14;16.50;99.90
2973;DHT22;1496;51.404;7.232;2023-09-08T02:48:39;16.50;99.90
2973;DHT22;1496;51.404;7.232;2023-09-08T02:51:06;16.50;99.90
2973;DHT22;1496;51.404;7.232;2023-09-08T02:53:32;16.50;99.90
2973;DHT22;1496;51.404;7.232;2023-09-08T02:55:58;16.60;99.90
2973;DHT22;1496;51.404;7.232;2023-09-08T02:58:25;16.60;99.90
2973;DHT22;1496;51.404;7.232;2023-09-08T03:00:51;16.50;99.90
2973;DHT22;1496;51.404;7.232;2023-09-08T03:03:20;16.50;99.90
2973;DHT22;1496;51.404;7.232;2023-09-08T03:05:46;16.50;99.90
2973;DHT22;1496;51.404;7.232;2023-09-08T03:08:13;16.40;99.90
2973;DHT22;1496;51.404;7.232;2023-09-08T03:10:38;16.30;99.90
2973;DHT22;1496;51.404;7.232;2023-09-08T03:13:04;16.30;99.90
2973;DHT22;1496;51.404;7.232;2023-09-08T03:15:30;16.20;99.90
2973;DHT22;1496;51.404;7.232;2023-09-08T03:17:57;16.20;99.90
2973;DHT22;1496;51.404;7.232;2023-09-08T03:20:24;16.20;99.90
2973;DHT22;1496;51.404;7.232;2023-09-08T03:22:51;16.20;1.00
2973;DHT22;1496;51.404;7.232;2023-09-08T03:25:18;16.30;99.90
2973;DHT22;1496;51.404;7.232;2023-09-08T03:27:44;16.30;99.90
2973;DHT22;1496;51.404;7.232;2023-09-08T03:30:10;16.30;99.90
2973;DHT22;1496;51.404;7.232;2023-09-08T03:32:36;16.40;99.90
2973;DHT22;1496;51.404;7.232;2023-09-08T03:35:03;16.40;99.90
2973;DHT22;1496;51.404;7.232;2023-09-08T03:37:31;16.50;99.90
2973;DHT22;1496;51.404;7.232;2023-09-08T03:39:57;16.50;99.90
2973;DHT22;1496;51.404;7.232;2023-09-08T03:42:22;16.50;99.90
2973;DHT22;1496;51.404;7.232;2023-09-08T03:44:48;16.50;99.90
2973;DHT22;1496;51.404;7.232;2023-09-08T03:47:14;16.40;99.90
2973;DHT22;1496;51.404;7.232;2023-09-08T03:49:39;16.50;99.90
2973;DHT22;1496;51.404;7.232;2023-09-08T03:52:05;16.40;99.90
2973;DHT22;1496;51.404;7.232;2023-09-08T03:54:32;16.40;99.90
2973;DHT22;1496;51.404;7.232;2023-09-08T03:56:58;16.50;99.90
2973;DHT22;1496;51.404;7.232;2023-09-08T03:59:23;16.40;99.90
2973;DHT22;1496;51.404;7.232;2023-09-08T04:01:49;16.50;99.90
2973;DHT22;1496;51.404;7.232;2023-09-08T04:04:15;16.60;99.90
2973;DHT22;1496;51.404;7.232;2023-09-08T04:06:41;16.60;99.90
2973;DHT22;1496;51.404;7.232;2023-09-08T04:09:07;16.60;99.90
2973;DHT22;1496;51.404;7.232;2023-09-08T04:11:33;16.70;99.90
2973;DHT22;1496;51.404;7.232;2023-09-08T04:13:58;16.70;99.90
2973;DHT22;1496;51.404;7.232;2023-09-08T04:16:26;16.70;99.90
2973;DHT22;1496;51.404;7.232;2023-09-08T04:18:51;16.60;99.90
2973;DHT22;1496;51.404;7.232;2023-09-08T04:21:17;16.60;99.90
2973;DHT22;1496;51.404;7.232;2023-09-08T04:23:42;16.60;99.90
2973;DHT22;1496;51.404;7.232;2023-09-08T04:26:08;16.60;99.90
2973;DHT22;1496;51.404;7.232;2023-09-08T04:28:34;16.60;99.90
2973;DHT22;1496;51.404;7.232;2023-09-08T04:30:59;16.70;99.90
2973;DHT22;1496;51.404;7.232;2023-09-08T04:33:26;16.70;99.90
2973;DHT22;1496;51.404;7.232;2023-09-08T04:35:51;16.70;99.90
2973;DHT22;1496;51.404;7.232;2023-09-08T04:38:17;16.70;99.90
2973;DHT22;1496;51.404;7.232;2023-09-08T04:40:45;16.70;99.90
2973;DHT22;1496;51.404;7.232;2023-09-08T04:43:11;16.70;99.90
2973;DHT22;1496;51.404;7.232;2023-09-08T04:45:37;16.60;99.90
2973;DHT22;1496;51.404;7.232;2023-09-08T04:48:04;16.50;99.90
2973;DHT22;1496;51.404;7.232;2023-09-08T04:50:30;16.40;99.90
2973;DHT22;1496;51.404;7.232;2023-09-08T04:52:56;16.30;99.90
2973;DHT22;1496;51.404;7.232;2023-09-08T04:55:21;16.20;99.90
2973;DHT22;1496;51.404;7.232;2023-09-08T04:57:47;16.20;99.90
2973;DHT22;1496;51.404;7.232;2023-09-08T05:00:13;16.10;99.90
2973;DHT22;1496;51.404;7.232;2023-09-08T05:02:39;16.10;99.90
2973;DHT22;1496;51.404;7.232;2023-09-08T05:05:05;16.00;99.90
2973;DHT22;1496;51.404;7.232;2023-09-08T05:07:31;15.90;99.90
2973;DHT22;1496;51.404;7.232;2023-09-08T05:09:57;15.90;99.90
2973;DHT22;1496;51.404;7.232;2023-09-08T05:12:24;15.80;99.90
2973;DHT22;1496;51.404;7.232;2023-09-08T05:14:50;15.90;99.90
2973;DHT22;1496;51.404;7.232;2023-09-08T05:17:22;15.90;99.90
2973;DHT22;1496;51.404;7.232;2023-09-08T05:19:48;16.00;99.90
2973;DHT22;1496;51.404;7.232;2023-09-08T05:22:14;15.90;99.90
2973;DHT22;1496;51.404;7.232;2023-09-08T05:24:40;15.80;99.90
2973;DHT22;1496;51.404;7.232;2023-09-08T05:27:06;15.80;99.90
2973;DHT22;1496;51.404;7.232;2023-09-08T05:29:32;15.80;99.90
2973;DHT22;1496;51.404;7.232;2023-09-08T05:31:58;15.80;99.90
2973;DHT22;1496;51.404;7.232;2023-09-08T05:34:24;15.80;99.90
2973;DHT22;1496;51.404;7.232;2023-09-08T05:36:50;15.90;99.90
2973;DHT22;1496;51.404;7.232;2023-09-08T05:39:15;15.90;99.90
2973;DHT22;1496;51.404;7.232;2023-09-08T05:41:43;15.90;99.90
2973;DHT22;1496;51.404;7.232;2023-09-08T05:44:08;15.80;99.90
2973;DHT22;1496;51.404;7.232;2023-09-08T05:46:35;15.80;99.90
2973;DHT22;1496;51.404;7.232;2023-09-08T05:49:01;15.90;99.90
2973;DHT22;1496;51.404;7.232;2023-09-08T05:51:27;15.90;99.90
2973;DHT22;1496;51.404;7.232;2023-09-08T05:53:55;15.90;99.90
2973;DHT22;1496;51.404;7.232;2023-09-08T05:56:20;15.90;99.90
2973;DHT22;1496;51.404;7.232;2023-09-08T05:58:47;16.00;99.90
2973;DHT22;1496;51.404;7.232;2023-09-08T06:01:13;16.00;99.90
2973;DHT22;1496;51.404;7.232;2023-09-08T06:03:39;16.00;99.90
2973;DHT22;1496;51.404;7.232;2023-09-08T06:06:04;15.90;99.90
2973;DHT22;1496;51.404;7.232;2023-09-08T06:08:30;16.00;99.90
2973;DHT22;1496;51.404;7.232;2023-09-08T06:10:56;16.00;99.90
2973;DHT22;1496;51.404;7.232;2023-09-08T06:13:21;16.10;99.90
2973;DHT22;1496;51.404;7.232;2023-09-08T06:15:47;16.20;99.90
2973;DHT22;1496;51.404;7.232;2023-09-08T06:18:13;16.30;99.90
2973;DHT22;1496;51.404;7.232;2023-09-08T06:20:46;16.40;99.90
2973;DHT22;1496;51.404;7.232;2023-09-08T06:23:13;16.50;99.90
2973;DHT22;1496;51.404;7.232;2023-09-08T06:25:39;16.60;99.90
2973;DHT22;1496;51.404;7.232;2023-09-08T06:28:06;16.70;99.90
2973;DHT22;1496;51.404;7.232;2023-09-08T06:30:32;16.80;99.90
2973;DHT22;1496;51.404;7.232;2023-09-08T06:32:57;16.90;99.90
2973;DHT22;1496;51.404;7.232;2023-09-08T06:35:25;17.00;99.90
2973;DHT22;1496;51.404;7.232;2023-09-08T06:37:51;17.10;99.90
2973;DHT22;1496;51.404;7.232;2023-09-08T06:40:16;17.20;99.90
2973;DHT22;1496;51.404;7.232;2023-09-08T06:42:42;17.30;99.90
2973;DHT22;1496;51.404;7.232;2023-09-08T06:45:15;17.30;99.90
2973;DHT22;1496;51.404;7.232;2023-09-08T06:47:42;17.50;99.90
2973;DHT22;1496;51.404;7.232;2023-09-08T06:50:08;17.60;99.90
2973;DHT22;1496;51.404;7.232;2023-09-08T06:52:34;17.80;99.90
2973;DHT22;1496;51.404;7.232;2023-09-08T06:55:00;17.80;99.90
2973;DHT22;1496;51.404;7.232;2023-09-08T06:57:25;17.80;99.90
2973;DHT22;1496;51.404;7.232;2023-09-08T06:59:52;17.80;99.90
2973;DHT22;1496;51.404;7.232;2023-09-08T07:02:21;17.90;99.90
2973;DHT22;1496;51.404;7.232;2023-09-08T07:04:47;18.00;99.90
2973;DHT22;1496;51.404;7.232;2023-09-08T07:07:13;18.10;99.90
2973;DHT22;1496;51.404;7.232;2023-09-08T07:09:39;18.10;99.90
2973;DHT22;1496;51.404;7.232;2023-09-08T07:12:06;18.20;99.90
2973;DHT22;1496;51.404;7.232;2023-09-08T07:14:32;18.30;99.90
2973;DHT22;1496;51.404;7.232;2023-09-08T07:16:58;18.40;99.90
2973;DHT22;1496;51.404;7.232;2023-09-08T07:19:25;18.70;99.90
2973;DHT22;1496;51.404;7.232;2023-09-08T07:21:51;18.90;99.90
2973;DHT22;1496;51.404;7.232;2023-09-08T07:24:18;19.00;99.90
2973;DHT22;1496;51.404;7.232;2023-09-08T07:26:43;19.20;99.90
2973;DHT22;1496;51.404;7.232;2023-09-08T07:29:09;19.30;99.90
2973;DHT22;1496;51.404;7.232;2023-09-08T07:31:35;19.50;99.90
2973;DHT22;1496;51.404;7.232;2023-09-08T07:34:01;19.60;99.90
2973;DHT22;1496;51.404;7.232;2023-09-08T07:36:27;19.80;99.90
2973;DHT22;1496;51.404;7.232;2023-09-08T07:38:53;20.10;99.90
2973;DHT22;1496;51.404;7.232;2023-09-08T07:41:19;20.30;99.90
2973;DHT22;1496;51.404;7.232;2023-09-08T07:43:45;20.50;99.90
2973;DHT22;1496;51.404;7.232;2023-09-08T07:46:13;20.60;99.90
2973;DHT22;1496;51.404;7.232;2023-09-08T07:48:39;20.90;99.90
2973;DHT22;1496;51.404;7.232;2023-09-08T07:51:04;21.40;99.90
2973;DHT22;1496;51.404;7.232;2023-09-08T07:53:30;21.60;99.90
2973;DHT22;1496;51.404;7.232;2023-09-08T07:55:56;22.00;99.90
2973;DHT22;1496;51.404;7.232;2023-09-08T07:58:22;22.40;99.90
2973;DHT22;1496;51.404;7.232;2023-09-08T08:00:48;22.70;99.90
2973;DHT22;1496;51.404;7.232;2023-09-08T08:03:13;22.90;99.90
2973;DHT22;1496;51.404;7.232;2023-09-08T08:05:39;23.10;99.90
2973;DHT22;1496;51.404;7.232;2023-09-08T08:08:05;23.20;99.90
2973;DHT22;1496;51.404;7.232;2023-09-08T08:10:31;23.20;99.90
2973;DHT22;1496;51.404;7.232;2023-09-08T08:12:57;23.20;99.90
2973;DHT22;1496;51.404;7.232;2023-09-08T08:15:33;23.40;99.90
2973;DHT22;1496;51.404;7.232;2023-09-08T08:17:59;23.50;99.90
2973;DHT22;1496;51.404;7.232;2023-09-08T08:20:25;23.70;99.90
2973;DHT22;1496;51.404;7.232;2023-09-08T08:22:51;23.80;99.90
2973;DHT22;1496;51.404;7.232;2023-09-08T08:25:17;23.90;99.90
2973;DHT22;1496;51.404;7.232;2023-09-08T08:27:42;23.90;99.90
2973;DHT22;1496;51.404;7.232;2023-09-08T08:30:08;24.10;99.90
2973;DHT22;1496;51.404;7.232;2023-09-08T08:32:36;24.20;99.90
2973;DHT22;1496;51.404;7.232;2023-09-08T08:35:02;24.20;99.90
2973;DHT22;1496;51.404;7.232;2023-09-08T08:37:30;24.20;99.90
2973;DHT22;1496;51.404;7.232;2023-09-08T08:39:55;24.30;99.90
2973;DHT22;1496;51.404;7.232;2023-09-08T08:42:21;24.40;99.90
2973;DHT22;1496;51.404;7.232;2023-09-08T08:44:48;24.40;99.90
2973;DHT22;1496;51.404;7.232;2023-09-08T08:47:16;24.50;99.90
2973;DHT22;1496;51.404;7.232;2023-09-08T08:49:44;24.60;99.90
2973;DHT22;1496;51.404;7.232;2023-09-08T08:52:13;24.60;99.90
2973;DHT22;1496;51.404;7.232;2023-09-08T08:54:40;24.60;99.90
2973;DHT22;1496;51.404;7.232;2023-09-08T08:57:08;24.70;99.90
2973;DHT22;1496;51.404;7.232;2023-09-08T08:59:34;24.70;99.90
2973;DHT22;1496;51.404;7.232;2023-09-08T09:02:02;24.70;99.90
2973;DHT22;1496;51.404;7.232;2023-09-08T09:04:29;24.80;99.90
2973;DHT22;1496;51.404;7.232;2023-09-08T09:06:55;24.90;99.90
2973;DHT22;1496;51.404;7.232;2023-09-08T09:09:21;24.80;99.90
2973;DHT22;1496;51.404;7.232;2023-09-08T09:11:49;24.90;99.90
2973;DHT22;1496;51.404;7.232;2023-09-08T09:14:14;24.90;99.90
2973;DHT22;1496;51.404;7.232;2023-09-08T09:16:41;25.10;99.90
2973;DHT22;1496;51.404;7.232;2023-09-08T09:19:07;25.10;99.90
2973;DHT22;1496;51.404;7.232;2023-09-08T09:21:44;25.10;99.90
2973;DHT22;1496;51.404;7.232;2023-09-08T09:24:17;25.20;99.90
2973;DHT22;1496;51.404;7.232;2023-09-08T09:26:53;25.20;99.90
2973;DHT22;1496;51.404;7.232;2023-09-08T09:29:19;25.30;99.90
2973;DHT22;1496;51.404;7.232;2023-09-08T09:34:18;25.50;99.90
2973;DHT22;1496;51.404;7.232;2023-09-08T09:36:45;25.50;99.90
2973;DHT22;1496;51.404;7.232;2023-09-08T09:39:23;25.50;99.90
2973;DHT22;1496;51.404;7.232;2023-09-08T09:41:53;25.60;99.90
2973;DHT22;1496;51.404;7.232;2023-09-08T09:44:19;25.80;99.90
2973;DHT22;1496;51.404;7.232;2023-09-08T09:46:46;25.90;99.90
2973;DHT22;1496;51.404;7.232;2023-09-08T09:49:16;25.90;99.90
2973;DHT22;1496;51.404;7.232;2023-09-08T09:51:46;26.10;99.90
2973;DHT22;1496;51.404;7.232;2023-09-08T09:54:14;26.10;99.90
2973;DHT22;1496;51.404;7.232;2023-09-08T09:56:40;26.20;99.90
2973;DHT22;1496;51.404;7.232;2023-09-08T09:59:10;26.20;99.90
2973;DHT22;1496;51.404;7.232;2023-09-08T10:01:37;26.30;99.90
2973;DHT22;1496;51.404;7.232;2023-09-08T10:04:03;26.20;99.90
2973;DHT22;1496;51.404;7.232;2023-09-08T10:06:34;26.30;99.90
2973;DHT22;1496;51.404;7.232;2023-09-08T10:09:01;26.30;99.90
2973;DHT22;1496;51.404;7.232;2023-09-08T10:11:34;26.40;99.90
2973;DHT22;1496;51.404;7.232;2023-09-08T10:14:01;26.50;99.90
2973;DHT22;1496;51.404;7.232;2023-09-08T10:16:28;26.50;99.90
2973;DHT22;1496;51.404;7.232;2023-09-08T10:18:58;26.60;99.90
2973;DHT22;1496;51.404;7.232;2023-09-08T10:21:26;26.60;99.90
2973;DHT22;1496;51.404;7.232;2023-09-08T10:23:59;26.70;99.90
2973;DHT22;1496;51.404;7.232;2023-09-08T10:26:31;26.70;99.90
2973;DHT22;1496;51.404;7.232;2023-09-08T10:28:58;26.80;99.90
2973;DHT22;1496;51.404;7.232;2023-09-08T10:31:26;26.90;99.90
2973;DHT22;1496;51.404;7.232;2023-09-08T10:33:56;27.00;99.90
2973;DHT22;1496;51.404;7.232;2023-09-08T10:36:23;27.00;99.90
2973;DHT22;1496;51.404;7.232;2023-09-08T10:38:49;27.20;99.90
2973;DHT22;1496;51.404;7.232;2023-09-08T10:43:43;27.40;99.90
2973;DHT22;1496;51.404;7.232;2023-09-08T10:46:10;27.40;99.90
2973;DHT22;1496;51.404;7.232;2023-09-08T10:48:43;27.50;99.90
2973;DHT22;1496;51.404;7.232;2023-09-08T10:51:13;27.50;99.90
2973;DHT22;1496;51.404;7.232;2023-09-08T10:53:40;27.50;99.90
2973;DHT22;1496;51.404;7.232;2023-09-08T10:56:05;27.60;99.90
2973;DHT22;1496;51.404;7.232;2023-09-08T10:58:33;27.60;99.90
2973;DHT22;1496;51.404;7.232;2023-09-08T11:01:00;27.60;99.90
2973;DHT22;1496;51.404;7.232;2023-09-08T11:06:08;27.60;99.90
2973;DHT22;1496;51.404;7.232;2023-09-08T11:08:43;27.60;99.90
2973;DHT22;1496;51.404;7.232;2023-09-08T11:11:14;27.60;99.90
2973;DHT22;1496;51.404;7.232;2023-09-08T11:13:39;27.60;99.90
2973;DHT22;1496;51.404;7.232;2023-09-08T11:16:06;27.50;99.90
2973;DHT22;1496;51.404;7.232;2023-09-08T11:18:33;27.70;99.90
2973;DHT22;1496;51.404;7.232;2023-09-08T11:21:01;27.80;99.90
2973;DHT22;1496;51.404;7.232;2023-09-08T11:23:30;27.90;99.90
2973;DHT22;1496;51.404;7.232;2023-09-08T11:25:57;28.00;99.90
2973;DHT22;1496;51.404;7.232;2023-09-08T11:28:25;28.00;99.90
2973;DHT22;1496;51.404;7.232;2023-09-08T11:30:52;28.00;99.90
2973;DHT22;1496;51.404;7.232;2023-09-08T11:33:21;28.10;99.90
2973;DHT22;1496;51.404;7.232;2023-09-08T11:35:54;28.10;99.90
2973;DHT22;1496;51.404;7.232;2023-09-08T11:38:26;28.20;99.90
2973;DHT22;1496;51.404;7.232;2023-09-08T11:40:57;28.40;99.90
2973;DHT22;1496;51.404;7.232;2023-09-08T11:43:24;28.30;99.90
2973;DHT22;1496;51.404;7.232;2023-09-08T11:45:51;28.40;99.90
2973;DHT22;1496;51.404;7.232;2023-09-08T11:48:16;28.40;99.90
2973;DHT22;1496;51.404;7.232;2023-09-08T11:50:42;28.40;99.90
2973;DHT22;1496;51.404;7.232;2023-09-08T11:53:09;28.30;99.90
2973;DHT22;1496;51.404;7.232;2023-09-08T11:55:35;28.30;99.90
2973;DHT22;1496;51.404;7.232;2023-09-08T11:58:02;28.30;99.90
2973;DHT22;1496;51.404;7.232;2023-09-08T12:00:29;28.40;99.90
2973;DHT22;1496;51.404;7.232;2023-09-08T12:02:55;28.30;99.90
2973;DHT22;1496;51.404;7.232;2023-09-08T12:05:27;28.30;99.90
2973;DHT22;1496;51.404;7.232;2023-09-08T12:07:55;28.40;99.90
2973;DHT22;1496;51.404;7.232;2023-09-08T12:10:27;28.50;99.90
2973;DHT22;1496;51.404;7.232;2023-09-08T12:12:53;28.40;99.90
2973;DHT22;1496;51.404;7.232;2023-09-08T12:15:30;28.50;99.90
2973;DHT22;1496;51.404;7.232;2023-09-08T12:17:57;28.50;99.90
2973;DHT22;1496;51.404;7.232;2023-09-08T12:20:23;28.50;99.90
2973;DHT22;1496;51.404;7.232;2023-09-08T12:22:52;28.40;99.90
2973;DHT22;1496;51.404;7.232;2023-09-08T12:25:18;28.50;99.90
2973;DHT22;1496;51.404;7.232;2023-09-08T12:27:50;28.40;99.90
2973;DHT22;1496;51.404;7.232;2023-09-08T12:30:20;28.40;99.90
2973;DHT22;1496;51.404;7.232;2023-09-08T12:32:50;28.50;99.90
2973;DHT22;1496;51.404;7.232;2023-09-08T12:35:23;28.50;99.90
2973;DHT22;1496;51.404;7.232;2023-09-08T12:38:02;28.60;99.90
2973;DHT22;1496;51.404;7.232;2023-09-08T12:40:33;28.60;99.90
2973;DHT22;1496;51.404;7.232;2023-09-08T12:42:59;28.70;99.90
2973;DHT22;1496;51.404;7.232;2023-09-08T12:45:26;28.70;99.90
2973;DHT22;1496;51.404;7.232;2023-09-08T12:47:52;28.70;99.90
2973;DHT22;1496;51.404;7.232;2023-09-08T12:50:17;28.60;99.90
2973;DHT22;1496;51.404;7.232;2023-09-08T12:52:44;28.60;99.90
2973;DHT22;1496;51.404;7.232;2023-09-08T12:55:09;28.60;99.90
2973;DHT22;1496;51.404;7.232;2023-09-08T12:57:35;28.60;99.90
2973;DHT22;1496;51.404;7.232;2023-09-08T13:00:02;28.60;99.90
2973;DHT22;1496;51.404;7.232;2023-09-08T13:02:28;28.60;99.90
2973;DHT22;1496;51.404;7.232;2023-09-08T13:04:54;28.50;99.90
2973;DHT22;1496;51.404;7.232;2023-09-08T13:07:20;28.60;99.90
2973;DHT22;1496;51.404;7.232;2023-09-08T13:09:46;28.70;99.90
2973;DHT22;1496;51.404;7.232;2023-09-08T13:12:13;28.60;99.90
2973;DHT22;1496;51.404;7.232;2023-09-08T13:14:39;28.70;99.90
2973;DHT22;1496;51.404;7.232;2023-09-08T13:17:05;28.60;99.90
2973;DHT22;1496;51.404;7.232;2023-09-08T13:19:32;28.60;99.90
2973;DHT22;1496;51.404;7.232;2023-09-08T13:21:58;28.70;99.90
2973;DHT22;1496;51.404;7.232;2023-09-08T13:24:24;28.70;99.90
2973;DHT22;1496;51.404;7.232;2023-09-08T13:26:50;28.70;99.90
2973;DHT22;1496;51.404;7.232;2023-09-08T13:29:16;28.70;99.90
2973;DHT22;1496;51.404;7.232;2023-09-08T13:31:42;28.70;99.90
2973;DHT22;1496;51.404;7.232;2023-09-08T13:34:08;28.70;99.90
2973;DHT22;1496;51.404;7.232;2023-09-08T13:36:33;28.70;99.90
2973;DHT22;1496;51.404;7.232;2023-09-08T13:38:59;28.80;99.90
2973;DHT22;1496;51.404;7.232;2023-09-08T13:41:43;28.80;99.90
2973;DHT22;1496;51.404;7.232;2023-09-08T13:44:09;28.90;99.90
2973;DHT22;1496;51.404;7.232;2023-09-08T13:46:34;28.90;99.90
2973;DHT22;1496;51.404;7.232;2023-09-08T13:49:00;28.80;99.90
2973;DHT22;1496;51.404;7.232;2023-09-08T13:51:25;28.90;99.90
2973;DHT22;1496;51.404;7.232;2023-09-08T13:53:51;28.80;99.90
2973;DHT22;1496;51.404;7.232;2023-09-08T13:56:17;28.80;99.90
2973;DHT22;1496;51.404;7.232;2023-09-08T13:58:43;28.80;99.90
2973;DHT22;1496;51.404;7.232;2023-09-08T14:01:11;28.90;99.90
2973;DHT22;1496;51.404;7.232;2023-09-08T14:03:37;28.90;99.90
2973;DHT22;1496;51.404;7.232;2023-09-08T14:06:02;28.90;99.90
2973;DHT22;1496;51.404;7.232;2023-09-08T14:08:28;28.90;99.90
2973;DHT22;1496;51.404;7.232;2023-09-08T14:10:54;28.90;99.90
2973;DHT22;1496;51.404;7.232;2023-09-08T14:13:19;28.90;99.90
2973;DHT22;1496;51.404;7.232;2023-09-08T14:15:45;28.90;99.90
2973;DHT22;1496;51.404;7.232;2023-09-08T14:18:11;28.90;99.90
2973;DHT22;1496;51.404;7.232;2023-09-08T14:20:37;28.80;99.90
2973;DHT22;1496;51.404;7.232;2023-09-08T14:23:02;28.90;99.90
2973;DHT22;1496;51.404;7.232;2023-09-08T14:25:28;28.90;99.90
2973;DHT22;1496;51.404;7.232;2023-09-08T14:27:53;28.90;99.90
2973;DHT22;1496;51.404;7.232;2023-09-08T14:30:19;28.90;99.90
2973;DHT22;1496;51.404;7.232;2023-09-08T14:32:45;28.80;99.90
2973;DHT22;1496;51.404;7.232;2023-09-08T14:35:12;28.80;99.90
2973;DHT22;1496;51.404;7.232;2023-09-08T14:37:38;28.80;99.90
2973;DHT22;1496;51.404;7.232;2023-09-08T14:40:04;28.80;99.90
2973;DHT22;1496;51.404;7.232;2023-09-08T14:42:31;28.80;99.90
2973;DHT22;1496;51.404;7.232;2023-09-08T14:44:57;28.70;99.90
2973;DHT22;1496;51.404;7.232;2023-09-08T14:47:22;28.70;99.90
2973;DHT22;1496;51.404;7.232;2023-09-08T14:49:48;28.60;99.90
2973;DHT22;1496;51.404;7.232;2023-09-08T14:52:14;28.60;99.90
2973;DHT22;1496;51.404;7.232;2023-09-08T14:54:41;28.60;99.90
2973;DHT22;1496;51.404;7.232;2023-09-08T14:57:06;28.60;99.90
2973;DHT22;1496;51.404;7.232;2023-09-08T14:59:32;28.60;99.90
2973;DHT22;1496;51.404;7.232;2023-09-08T15:01:58;28.50;99.90
2973;DHT22;1496;51.404;7.232;2023-09-08T15:04:23;28.50;99.90
2973;DHT22;1496;51.404;7.232;2023-09-08T15:06:49;28.40;99.90
2973;DHT22;1496;51.404;7.232;2023-09-08T15:09:14;28.40;99.90
2973;DHT22;1496;51.404;7.232;2023-09-08T15:11:40;28.40;99.90
2973;DHT22;1496;51.404;7.232;2023-09-08T15:14:06;28.30;99.90
2973;DHT22;1496;51.404;7.232;2023-09-08T15:16:31;28.30;99.90
2973;DHT22;1496;51.404;7.232;2023-09-08T15:18:57;28.30;99.90
2973;DHT22;1496;51.404;7.232;2023-09-08T15:21:24;28.20;99.90
2973;DHT22;1496;51.404;7.232;2023-09-08T15:27:40;28.20;99.90
2973;DHT22;1496;51.404;7.232;2023-09-08T15:30:06;28.10;99.90
2973;DHT22;1496;51.404;7.232;2023-09-08T15:32:32;28.10;99.90
2973;DHT22;1496;51.404;7.232;2023-09-08T15:34:58;28.00;99.90
2973;DHT22;1496;51.404;7.232;2023-09-08T15:37:24;27.90;99.90
2973;DHT22;1496;51.404;7.232;2023-09-08T15:39:49;27.80;99.90
2973;DHT22;1496;51.404;7.232;2023-09-08T15:42:15;27.90;99.90
2973;DHT22;1496;51.404;7.232;2023-09-08T15:44:40;28.00;99.90
2973;DHT22;1496;51.404;7.232;2023-09-08T15:47:06;27.90;99.90
2973;DHT22;1496;51.404;7.232;2023-09-08T15:49:32;27.90;99.90
2973;DHT22;1496;51.404;7.232;2023-09-08T15:51:57;27.90;99.90
2973;DHT22;1496;51.404;7.232;2023-09-08T15:54:24;27.80;99.90
2973;DHT22;1496;51.404;7.232;2023-09-08T15:56:50;27.80;99.90
2973;DHT22;1496;51.404;7.232;2023-09-08T15:59:15;27.80;99.90
2973;DHT22;1496;51.404;7.232;2023-09-08T16:01:42;27.80;99.90
2973;DHT22;1496;51.404;7.232;2023-09-08T16:04:08;27.80;99.90
2973;DHT22;1496;51.404;7.232;2023-09-08T16:06:38;27.80;99.90
2973;DHT22;1496;51.404;7.232;2023-09-08T16:09:04;27.80;99.90
2973;DHT22;1496;51.404;7.232;2023-09-08T16:11:34;27.80;99.90
2973;DHT22;1496;51.404;7.232;2023-09-08T16:14:00;27.80;99.90